Time;durP1;ratioP1;P1;durP2;ratioP2;P2;SDS_P1;SDS_P2;PMS_P1;PMS_P2;Temp;Humidity;BMP_temperature;BMP_pressure;BME280_temperature;BME280_humidity;BME280_pressure;Samples;Min_cycle;Max_cycle;Signal;HPM_P1;HPM_P2
2023/09/16 00:00:57;;;;;;;16.03;13.80;;;;;;;17.93;100.00;155969.06;4933675;28;20503;-81
2023/09/16 00:03:24;;;;;;;15.03;12.73;;;;;;;17.90;100.00;155962.56;4933258;29;20494;-81
2023/09/16 00:05:52;;;;;;;15.60;13.17;;;;;;;17.87;100.00;155954.72;4927647;29;20495;-81
2023/09/16 00:08:18;;;;;;;14.23;12.83;;;;;;;17.85;100.00;155948.22;4930618;29;20475;-81
2023/09/16 00:10:45;;;;;;;15.40;13.23;;;;;;;17.81;100.00;155939.16;4932077;29;20987;-81
2023/09/16 00:13:12;;;;;;;14.83;13.23;;;;;;;17.81;100.00;155937.84;4948740;28;20440;-81
2023/09/16 00:15:38;;;;;;;13.00;11.70;;;;;;;17.77;100.00;155927.38;4987144;28;20504;-81
2023/09/16 00:18:05;;;;;;;14.80;13.30;;;;;;;17.77;100.00;155927.38;4967886;28;20463;-80
2023/09/16 00:20:31;;;;;;;15.60;13.83;;;;;;;17.75;100.00;155923.50;4945732;28;21008;-81
2023/09/16 00:22:59;;;;;;;13.93;12.50;;;;;;;17.73;100.00;155917.00;4948330;28;21074;-80
2023/09/16 00:25:26;;;;;;;14.40;12.87;;;;;;;17.71;100.00;155913.13;4954814;28;20485;-80
2023/09/16 00:27:54;;;;;;;14.47;12.47;;;;;;;17.71;100.00;155911.81;4961897;28;20513;-80
2023/09/16 00:30:20;;;;;;;17.33;13.33;;;;;;;17.68;100.00;155905.28;4974472;28;20823;-80
2023/09/16 00:32:56;;;;;;;15.20;13.53;;;;;;;17.64;100.00;155894.84;4948703;29;20443;-80
2023/09/16 00:35:23;;;;;;;15.13;12.53;;;;;;;17.61;100.00;155887.03;4931045;28;20797;-81
2023/09/16 00:37:49;;;;;;;15.80;14.10;;;;;;;17.61;100.00;155887.03;4937221;28;20479;-81
2023/09/16 00:40:18;;;;;;;14.27;12.67;;;;;;;17.56;100.00;155875.34;4916854;29;20459;-81
2023/09/16 00:42:44;;;;;;;13.30;11.90;;;;;;;17.49;100.00;155855.78;4936211;29;20998;-81
2023/09/16 00:45:12;;;;;;;14.17;12.87;;;;;;;17.48;100.00;155853.16;4951935;28;20469;-81
2023/09/16 00:47:40;;;;;;;14.67;13.17;;;;;;;17.46;100.00;155849.25;4957048;28;20458;-81
2023/09/16 00:50:08;;;;;;;12.93;11.63;;;;;;;17.41;100.00;155836.25;4935542;29;20555;-81
2023/09/16 00:52:37;;;;;;;14.23;12.73;;;;;;;17.38;100.00;155827.13;4939089;28;20466;-81
2023/09/16 00:55:04;;;;;;;13.03;11.73;;;;;;;17.41;100.00;155834.94;4938104;28;20554;-81
2023/09/16 00:57:32;;;;;;;12.70;11.40;;;;;;;17.43;100.00;155840.13;4947032;28;20470;-81
2023/09/16 00:59:59;;;;;;;15.00;12.40;;;;;;;17.42;100.00;155838.81;4937104;29;20443;-80
2023/09/16 01:02:27;;;;;;;15.57;12.73;;;;;;;17.41;100.00;155836.25;4940714;29;20478;-81
2023/09/16 01:04:55;;;;;;;12.73;11.40;;;;;;;17.39;100.00;155829.75;4960721;28;20455;-81
2023/09/16 01:07:22;;;;;;;13.77;11.47;;;;;;;17.37;100.00;155824.50;4936050;29;20458;-80
2023/09/16 01:09:49;;;;;;;12.37;11.17;;;;;;;17.34;100.00;155816.72;4948634;28;20813;-80
2023/09/16 01:12:16;;;;;;;13.60;12.20;;;;;;;17.29;100.00;155805.00;4935669;29;20487;-81
2023/09/16 01:14:43;;;;;;;13.80;11.37;;;;;;;17.26;100.00;155795.91;4917354;29;20488;-81
2023/09/16 01:17:16;;;;;;;12.13;10.97;;;;;;;17.22;100.00;155785.47;4955510;28;20987;-81
2023/09/16 01:19:47;;;;;;;12.80;11.27;;;;;;;17.21;100.00;155782.91;4956363;28;20454;-81
2023/09/16 01:22:15;;;;;;;12.50;11.20;;;;;;;17.20;100.00;155781.59;4950658;28;20892;-80
2023/09/16 01:24:41;;;;;;;12.73;11.33;;;;;;;17.18;100.00;155775.09;4921608;29;20882;-80
2023/09/16 01:27:10;;;;;;;11.80;10.60;;;;;;;17.15;100.00;155768.59;4938195;28;20893;-80
2023/09/16 01:29:36;;;;;;;11.40;10.27;;;;;;;17.15;100.00;155767.28;4964499;28;20460;-81
2023/09/16 01:32:06;;;;;;;13.23;11.23;;;;;;;17.14;100.00;155764.66;4944280;29;20555;-81
2023/09/16 01:34:39;;;;;;;11.87;10.67;;;;;;;17.13;100.00;155762.06;4936371;29;20463;-80
2023/09/16 01:37:07;;;;;;;11.93;10.10;;;;;;;17.13;100.00;155762.06;4938443;28;21001;-81
2023/09/16 01:39:35;;;;;;;12.13;10.93;;;;;;;17.12;100.00;155759.47;4957499;28;20434;-80
2023/09/16 01:42:03;;;;;;;12.90;11.23;;;;;;;17.10;100.00;155754.25;4947657;29;20475;-80
2023/09/16 01:44:32;;;;;;;13.63;12.20;;;;;;;17.09;100.00;155751.63;4921649;28;20455;-81
2023/09/16 01:46:59;;;;;;;13.17;11.80;;;;;;;17.08;100.00;155749.06;4943996;28;20455;-80
2023/09/16 01:49:25;;;;;;;12.33;11.03;;;;;;;17.06;100.00;155745.13;4954656;28;20462;-80
2023/09/16 01:51:52;;;;;;;12.23;11.03;;;;;;;17.05;100.00;155743.81;4953009;28;20469;-81
2023/09/16 01:54:18;;;;;;;17.37;11.33;;;;;;;17.03;100.00;155738.63;4935902;29;20450;-80
2023/09/16 01:56:47;;;;;;;11.87;10.67;;;;;;;17.05;100.00;155743.81;4942182;28;20858;-80
2023/09/16 01:59:13;;;;;;;14.33;11.57;;;;;;;17.05;100.00;155742.53;4935662;29;20467;-80
2023/09/16 02:01:42;;;;;;;13.30;11.90;;;;;;;17.07;100.00;155746.44;4949328;28;21009;-80
2023/09/16 02:04:09;;;;;;;13.13;11.73;;;;;;;17.09;100.00;155752.94;4941735;28;20506;-79
2023/09/16 02:06:36;;;;;;;14.30;11.47;;;;;;;17.06;100.00;155745.13;4926609;28;20482;-80
2023/09/16 02:09:03;;;;;;;13.20;11.53;;;;;;;17.07;100.00;155746.44;4935555;29;20498;-80
2023/09/16 02:11:30;;;;;;;14.03;12.53;;;;;;;17.03;100.00;155738.63;4965244;28;20852;-80
2023/09/16 02:13:59;;;;;;;13.83;11.80;;;;;;;16.98;100.00;155725.63;4922041;29;20468;-79
2023/09/16 02:16:26;;;;;;;13.50;11.93;;;;;;;16.96;100.00;155720.44;4931267;29;20546;-80
2023/09/16 02:18:54;;;;;;;13.43;12.03;;;;;;;16.95;100.00;155716.50;4908668;29;20456;-80
2023/09/16 02:21:22;;;;;;;13.90;11.20;;;;;;;16.87;100.00;155697.00;4949636;29;20841;-80
2023/09/16 02:23:49;;;;;;;13.73;11.83;;;;;;;16.83;100.00;155686.59;4949205;28;20561;-80
2023/09/16 02:26:16;;;;;;;12.97;11.30;;;;;;;16.81;100.00;155681.38;4892588;29;20821;-80
2023/09/16 02:28:42;;;;;;;14.10;12.60;;;;;;;16.77;100.00;155669.66;4919208;29;20451;-80
2023/09/16 02:31:10;;;;;;;12.77;11.33;;;;;;;16.74;100.00;155663.16;4928379;29;20463;-80
2023/09/16 02:33:36;;;;;;;13.23;11.80;;;;;;;16.74;100.00;155663.16;4939935;29;20457;-80
2023/09/16 02:36:05;;;;;;;13.80;11.63;;;;;;;16.73;100.00;155659.28;4914906;29;20445;-80
2023/09/16 02:38:32;;;;;;;13.47;11.70;;;;;;;16.73;100.00;155660.53;4936115;29;20972;-80
2023/09/16 02:40:59;;;;;;;13.10;11.70;;;;;;;16.76;100.00;155668.38;4931797;29;20467;-80
2023/09/16 02:43:25;;;;;;;12.40;10.93;;;;;;;16.77;100.00;155669.66;4933062;29;20483;-80
2023/09/16 02:45:52;;;;;;;12.30;11.00;;;;;;;16.79;100.00;155674.88;4913791;29;20468;-80
2023/09/16 02:48:19;;;;;;;14.43;12.93;;;;;;;16.80;100.00;155678.78;4912939;29;20454;-80
2023/09/16 02:50:47;;;;;;;13.23;11.87;;;;;;;16.81;100.00;155681.38;4950597;29;20842;-80
2023/09/16 02:53:15;;;;;;;13.53;12.10;;;;;;;16.84;100.00;155689.19;4919629;29;21059;-80
2023/09/16 02:55:41;;;;;;;13.33;11.93;;;;;;;16.88;100.00;155699.63;4912776;29;20918;-80
2023/09/16 02:58:08;;;;;;;14.17;11.73;;;;;;;16.89;100.00;155702.19;4912148;29;20511;-80
2023/09/16 03:00:35;;;;;;;12.33;11.03;;;;;;;16.90;100.00;155704.81;4929414;29;20466;-79
2023/09/16 03:03:02;;;;;;;16.90;12.90;;;;;;;16.91;100.00;155707.44;4917922;29;20485;-80
2023/09/16 03:05:30;;;;;;;14.10;12.70;;;;;;;16.91;100.00;155706.13;4916930;29;20459;-79
2023/09/16 03:07:57;;;;;;;13.80;12.33;;;;;;;16.90;100.00;155703.50;4929773;29;20458;-80
2023/09/16 03:10:24;;;;;;;13.50;12.10;;;;;;;16.90;100.00;155703.50;4926045;29;20456;-80
2023/09/16 03:12:52;;;;;;;14.30;12.73;;;;;;;16.91;100.00;155706.13;4912956;29;20495;-80
2023/09/16 03:15:19;;;;;;;14.47;12.77;;;;;;;16.93;100.00;155712.63;4891367;29;20495;-80
2023/09/16 03:17:46;;;;;;;15.40;13.77;;;;;;;16.92;100.00;155710.00;4932206;29;20542;-80
2023/09/16 03:20:12;;;;;;;14.43;12.90;;;;;;;16.91;100.00;155707.44;4937424;29;20458;-80
2023/09/16 03:22:40;;;;;;;15.50;13.90;;;;;;;16.89;100.00;155700.94;4918924;29;20637;-80
2023/09/16 03:25:07;;;;;;;14.20;12.40;;;;;;;16.86;100.00;155694.41;4939431;29;20451;-80
2023/09/16 03:27:36;;;;;;;13.63;12.20;;;;;;;16.81;100.00;155681.38;4929253;29;20456;-80
2023/09/16 03:30:03;;;;;;;14.40;12.23;;;;;;;16.82;100.00;155684.00;4945478;29;20455;-80
2023/09/16 03:32:30;;;;;;;16.17;14.57;;;;;;;16.81;100.00;155681.38;4933964;29;20991;-80
2023/09/16 03:34:57;;;;;;;17.77;14.00;;;;;;;16.79;100.00;155674.88;4926503;29;20860;-80
2023/09/16 03:37:24;;;;;;;14.43;12.97;;;;;;;16.77;100.00;155670.97;4924874;29;20523;-80
2023/09/16 03:39:54;;;;;;;17.47;14.20;;;;;;;16.76;100.00;155668.38;4929683;29;20443;-80
2023/09/16 03:42:20;;;;;;;15.53;13.83;;;;;;;16.77;100.00;155669.66;4901134;29;20466;-80
2023/09/16 03:44:48;;;;;;;15.10;13.50;;;;;;;16.76;100.00;155668.38;4910910;29;20457;-80
2023/09/16 03:47:16;;;;;;;16.13;14.03;;;;;;;16.74;100.00;155663.16;4921280;29;20455;-80
2023/09/16 03:49:43;;;;;;;17.00;15.10;;;;;;;16.73;100.00;155660.53;4911298;29;20480;-80
2023/09/16 03:52:10;;;;;;;14.50;13.00;;;;;;;16.72;100.00;155657.97;4906999;29;20895;-80
2023/09/16 03:54:57;;;;;;;17.77;14.23;;;;;;;16.66;100.00;155642.34;4949063;28;20934;-80
2023/09/16 03:57:26;;;;;;;17.50;14.97;;;;;;;16.64;100.00;155635.84;4939280;29;20488;-80
2023/09/16 03:59:55;;;;;;;15.90;14.20;;;;;;;16.61;100.00;155628.03;4915959;29;20496;-79
2023/09/16 04:02:22;;;;;;;16.00;14.30;;;;;;;16.61;100.00;155629.34;4914954;29;20514;-80
2023/09/16 04:04:48;;;;;;;16.93;14.87;;;;;;;16.62;100.00;155630.66;4927337;29;20832;-79
2023/09/16 04:07:15;;;;;;;16.13;14.03;;;;;;;16.58;100.00;155620.22;4909874;29;20464;-79
2023/09/16 04:09:42;;;;;;;17.40;14.60;;;;;;;16.51;100.00;155603.28;4911072;29;20464;-79
2023/09/16 04:12:08;;;;;;;16.53;14.30;;;;;;;16.45;100.00;155587.66;4932906;29;20946;-80
2023/09/16 04:14:35;;;;;;;14.37;12.87;;;;;;;16.45;100.00;155587.66;4924646;29;20973;-79
2023/09/16 04:17:12;;;;;;;16.17;12.53;;;;;;;16.38;100.00;155569.47;4906408;29;20975;-80
2023/09/16 04:19:40;;;;;;;15.87;13.70;;;;;;;16.31;100.00;155551.25;4927842;29;20884;-80
2023/09/16 04:22:07;;;;;;;18.00;14.27;;;;;;;16.27;100.00;155540.84;4913771;29;20983;-80
2023/09/16 04:24:34;;;;;;;15.07;13.20;;;;;;;16.24;100.00;155534.34;4929036;29;20499;-80
2023/09/16 04:27:03;;;;;;;17.43;14.60;;;;;;;16.24;100.00;155533.06;4896501;29;20452;-80
2023/09/16 04:29:30;;;;;;;15.77;14.07;;;;;;;16.21;100.00;155525.25;4912010;29;20465;-80
2023/09/16 04:31:57;;;;;;;16.87;13.43;;;;;;;16.17;100.00;155516.16;4929302;29;20500;-80
2023/09/16 04:34:25;;;;;;;13.10;11.70;;;;;;;16.15;100.00;155509.66;4929575;29;20455;-81
2023/09/16 04:36:54;;;;;;;16.77;14.97;;;;;;;16.12;100.00;155503.16;4926804;29;20464;-80
2023/09/16 04:39:23;;;;;;;16.37;14.40;;;;;;;16.12;100.00;155501.88;4912621;29;20852;-80
2023/09/16 04:41:53;;;;;;;13.77;12.30;;;;;;;16.14;100.00;155507.06;4929619;29;20447;-81
2023/09/16 04:44:20;;;;;;;17.10;13.27;;;;;;;16.15;100.00;155509.66;4908853;29;20484;-80
2023/09/16 04:46:46;;;;;;;15.50;13.80;;;;;;;16.13;100.00;155504.44;4896840;29;20460;-81
2023/09/16 04:50:04;;;;;;;15.43;13.40;;;;;;;16.08;100.00;155491.44;4913417;29;20872;-80
2023/09/16 04:52:36;;;;;;;14.40;12.27;;;;;;;15.97;100.00;155464.13;4896718;29;20822;-80
2023/09/16 04:55:04;;;;;;;15.00;13.40;;;;;;;15.90;100.00;155444.63;4898626;29;20475;-80
2023/09/16 04:57:33;;;;;;;16.83;13.70;;;;;;;15.83;100.00;155429.03;4920037;29;20470;-80
2023/09/16 05:03:04;;;;;;;14.53;12.83;;;;;;;15.74;100.00;155405.66;4232397;26;20934;-84
2023/09/16 05:05:33;;;;;;;17.77;12.40;;;;;;;15.72;100.00;155400.47;4961782;28;20556;-85
2023/09/16 05:08:01;;;;;;;14.90;12.77;;;;;;;15.75;100.00;155406.97;4963265;28;20546;-83
2023/09/16 05:10:34;;;;;;;14.27;12.47;;;;;;;15.75;100.00;155408.22;4962749;23;20585;-82
2023/09/16 05:15:50;;;;;;;14.90;13.10;;;;;;;15.79;100.00;155418.63;4956186;28;20458;-85
2023/09/16 05:18:17;;;;;;;16.30;13.77;;;;;;;15.82;100.00;155425.13;4953858;28;20946;-83
2023/09/16 05:20:44;;;;;;;14.40;12.90;;;;;;;15.80;100.00;155421.25;4977377;28;20469;-83
2023/09/16 05:23:14;;;;;;;15.00;12.67;;;;;;;15.79;100.00;155417.34;4939206;28;20595;-84
2023/09/16 05:25:45;;;;;;;15.33;12.60;;;;;;;15.80;100.00;155421.25;4939295;28;20557;-84
2023/09/16 05:28:20;;;;;;;15.00;13.40;;;;;;;15.82;100.00;155426.44;4962591;28;20952;-84
2023/09/16 05:30:47;;;;;;;17.27;14.97;;;;;;;15.84;100.00;155431.63;4980775;28;20941;-84
2023/09/16 05:33:15;;;;;;;16.60;13.97;;;;;;;15.86;100.00;155435.50;4960255;28;20477;-84
2023/09/16 05:35:43;;;;;;;17.33;14.97;;;;;;;15.90;100.00;155444.63;4960612;28;20481;-85
2023/09/16 05:38:10;;;;;;;16.37;14.40;;;;;;;15.90;100.00;155444.63;4965236;28;20460;-84
2023/09/16 05:40:38;;;;;;;15.47;13.80;;;;;;;15.93;100.00;155452.44;4959607;28;20458;-84
2023/09/16 05:43:06;;;;;;;14.70;13.20;;;;;;;15.94;100.00;155455.06;4960114;28;20478;-84
2023/09/16 05:45:32;;;;;;;14.03;12.60;;;;;;;15.98;100.00;155465.44;4960438;28;20977;-85
2023/09/16 05:48:02;;;;;;;14.17;12.70;;;;;;;16.01;100.00;155473.25;4958723;28;20641;-86
2023/09/16 05:50:31;;;;;;;13.97;12.50;;;;;;;16.02;100.00;155477.13;4961655;28;20617;-81
2023/09/16 05:53:04;;;;;;;16.10;13.40;;;;;;;16.06;100.00;155487.56;4990753;28;20529;-96
2023/09/16 05:55:36;;;;;;;16.07;13.53;;;;;;;16.11;100.00;155499.25;5045560;23;20564;-96
2023/09/16 05:58:11;;;;;;;15.73;13.73;;;;;;;16.14;100.00;155508.38;5006646;28;20464;-95
2023/09/16 06:07:57;;;;;;;15.50;13.70;;;;;;;16.47;100.00;155592.88;4969192;28;20461;-95
2023/09/16 06:10:28;;;;;;;17.30;14.20;;;;;;;16.71;100.00;155655.34;4980547;28;21018;-96
2023/09/16 06:12:56;;;;;;;17.63;12.90;;;;;;;16.96;100.00;155720.44;4984121;28;20548;-96
2023/09/16 06:15:27;;;;;;;15.87;13.80;;;;;;;17.23;100.00;155788.09;4998420;28;20449;-94
2023/09/16 06:17:55;;;;;;;14.93;13.33;;;;;;;17.48;100.00;155854.47;4979259;28;20528;-96
2023/09/16 06:20:22;;;;;;;16.10;13.90;;;;;;;17.75;100.00;155923.50;4962238;28;20504;-95
2023/09/16 06:22:49;;;;;;;15.57;13.50;;;;;;;18.00;100.00;155988.59;4977689;28;20466;-95
2023/09/16 06:25:16;;;;;;;15.63;13.60;;;;;;;18.27;100.00;156057.59;4978113;28;20441;-93
2023/09/16 06:27:43;;;;;;;13.53;11.90;;;;;;;18.50;100.00;156117.59;4963707;28;20450;-95
2023/09/16 06:30:11;;;;;;;19.77;14.53;;;;;;;18.71;100.00;156171.00;4962633;28;20968;-93
2023/09/16 06:32:42;;;;;;;13.90;12.40;;;;;;;18.89;100.00;156217.91;4976218;28;20438;-94
2023/09/16 06:35:10;;;;;;;14.50;13.10;;;;;;;19.10;100.00;156272.63;4975988;28;20446;-94
2023/09/16 06:37:36;;;;;;;14.93;13.53;;;;;;;19.26;98.86;156314.34;4972225;28;20437;-93
2023/09/16 06:40:04;;;;;;;16.03;14.43;;;;;;;19.39;98.34;156346.97;4994608;28;20808;-93
2023/09/16 06:42:31;;;;;;;15.90;14.20;;;;;;;19.54;97.63;156384.78;4979217;28;20458;-93
2023/09/16 06:45:04;;;;;;;14.97;13.20;;;;;;;19.68;97.75;156422.56;4974954;28;20477;-89
2023/09/16 06:47:31;;;;;;;15.53;13.90;;;;;;;19.90;96.99;156479.97;4990348;28;20501;-90
2023/09/16 06:50:01;;;;;;;16.37;14.77;;;;;;;20.10;95.91;156530.78;4992338;28;20452;-91
2023/09/16 06:52:28;;;;;;;15.13;13.60;;;;;;;20.38;95.19;156603.91;4990516;28;20581;-89
2023/09/16 06:54:55;;;;;;;16.10;14.43;;;;;;;20.58;94.55;156656.06;4978721;28;20459;-91
2023/09/16 06:57:22;;;;;;;15.23;13.70;;;;;;;20.79;93.15;156709.53;4975643;28;20915;-90
2023/09/16 06:59:49;;;;;;;15.87;14.20;;;;;;;20.94;91.86;156748.69;4988155;28;20539;-90
2023/09/16 07:02:17;;;;;;;15.50;13.90;;;;;;;21.13;90.98;156797.00;4987529;28;20465;-91
2023/09/16 07:04:45;;;;;;;15.60;14.00;;;;;;;21.27;90.20;156833.56;4987680;28;20488;-90
2023/09/16 07:07:20;;;;;;;14.67;13.23;;;;;;;21.36;89.64;156857.09;5006150;28;20554;-91
2023/09/16 07:09:53;;;;;;;14.33;12.97;;;;;;;21.50;89.84;156892.34;5004543;28;20471;-88
2023/09/16 07:12:20;;;;;;;15.07;13.30;;;;;;;21.71;88.53;156947.16;4968169;28;20456;-91
2023/09/16 07:14:48;;;;;;;14.13;12.73;;;;;;;21.87;87.71;156987.69;4975307;28;20464;-90
2023/09/16 07:17:15;;;;;;;15.47;13.90;;;;;;;22.07;87.56;157039.88;4990118;28;20456;-92
2023/09/16 07:19:42;;;;;;;15.17;13.57;;;;;;;22.19;86.68;157071.22;4985636;28;20481;-91
2023/09/16 07:22:09;;;;;;;15.20;13.70;;;;;;;22.20;85.05;157075.16;4972560;28;20540;-89
2023/09/16 07:24:40;;;;;;;14.30;12.90;;;;;;;22.16;84.76;157064.69;4988642;28;20477;-89
2023/09/16 07:27:07;;;;;;;13.53;12.23;;;;;;;22.21;85.17;157076.47;4987674;28;20465;-90
2023/09/16 07:29:33;;;;;;;15.60;14.00;;;;;;;22.36;84.96;157116.97;4978849;28;20465;-91
2023/09/16 07:32:00;;;;;;;15.10;13.50;;;;;;;22.43;83.03;157135.22;4986198;28;20464;-90
2023/09/16 07:34:29;;;;;;;14.33;12.93;;;;;;;22.53;84.22;157158.75;4992647;28;20548;-90
2023/09/16 07:37:03;;;;;;;15.57;13.20;;;;;;;22.62;82.63;157182.25;4976543;28;20868;-90
2023/09/16 07:39:30;;;;;;;16.67;13.47;;;;;;;22.67;82.61;157196.66;5007329;28;20484;-89
2023/09/16 07:41:59;;;;;;;15.60;13.13;;;;;;;22.76;81.70;157218.88;5014158;28;20465;-89
2023/09/16 07:44:26;;;;;;;15.53;12.63;;;;;;;22.92;82.02;157262.03;4972444;28;20485;-90
2023/09/16 07:46:53;;;;;;;19.10;12.47;;;;;;;23.00;82.26;157282.94;4965439;28;20523;-90
2023/09/16 07:49:22;;;;;;;16.53;12.40;;;;;;;23.01;81.27;157284.19;4987731;28;20495;-89
2023/09/16 07:51:49;;;;;;;17.83;11.53;;;;;;;23.04;80.55;157293.34;5004753;28;20755;-85
2023/09/16 07:54:16;;;;;;;17.10;12.53;;;;;;;23.13;79.58;157315.59;5002484;28;20445;-81
2023/09/16 07:56:43;;;;;;;19.87;12.03;;;;;;;23.10;79.27;157306.41;4984356;28;20897;-81
2023/09/16 07:59:17;;;;;;;13.57;12.20;;;;;;;23.12;80.19;157312.94;5004490;28;20499;-77
2023/09/16 08:01:44;;;;;;;13.57;12.17;;;;;;;23.17;79.05;157324.69;5003972;28;20879;-81
2023/09/16 08:04:10;;;;;;;14.83;13.37;;;;;;;22.91;79.89;157259.38;4999596;28;20460;-81
2023/09/16 08:06:37;;;;;;;12.73;11.43;;;;;;;22.77;81.32;157221.53;5005028;28;20603;-80
2023/09/16 08:09:04;;;;;;;13.80;12.37;;;;;;;22.82;80.55;157234.59;4983852;28;20872;-81
2023/09/16 08:11:31;;;;;;;12.47;11.27;;;;;;;22.81;80.78;157233.25;5003514;28;20483;-81
2023/09/16 08:13:57;;;;;;;12.10;10.80;;;;;;;22.85;81.27;157242.38;4985691;28;20977;-80
2023/09/16 08:16:25;;;;;;;12.77;11.50;;;;;;;22.88;80.69;157251.53;4987048;28;20468;-80
2023/09/16 08:18:51;;;;;;;11.77;10.57;;;;;;;22.95;80.98;157268.56;4999378;28;20459;-80
2023/09/16 08:21:18;;;;;;;12.73;11.50;;;;;;;22.90;80.38;157256.75;5003646;28;20452;-80
2023/09/16 08:23:45;;;;;;;12.20;10.90;;;;;;;23.00;80.86;157282.94;5003250;28;20452;-80
2023/09/16 08:26:11;;;;;;;11.73;10.60;;;;;;;23.09;79.99;157305.09;5002105;28;20456;-81
2023/09/16 08:28:38;;;;;;;15.50;10.20;;;;;;;23.12;79.81;157311.63;4999950;28;20452;-75
2023/09/16 08:31:04;;;;;;;12.00;10.90;;;;;;;23.09;78.88;157305.09;4984781;28;20455;-80
2023/09/16 08:33:32;;;;;;;10.70;9.80;;;;;;;23.07;79.99;157298.56;5002837;28;20975;-80
2023/09/16 08:35:59;;;;;;;11.30;10.20;;;;;;;23.13;81.04;157315.59;5002707;28;20476;-81
2023/09/16 08:39:01;;;;;;;12.00;10.90;;;;;;;23.19;79.70;157329.97;4985774;28;20518;-81
2023/09/16 08:41:31;;;;;;;10.97;9.87;;;;;;;23.26;79.59;157348.25;4998316;28;20464;-83
2023/09/16 08:44:00;;;;;;;10.70;9.70;;;;;;;23.29;78.27;157356.09;4960431;28;20479;-81
2023/09/16 08:46:29;;;;;;;11.70;9.40;;;;;;;23.30;78.69;157360.00;4968965;28;20460;-81
2023/09/16 08:49:00;;;;;;;11.23;9.30;;;;;;;23.38;79.34;157380.97;5003087;28;21640;-81
2023/09/16 08:51:27;;;;;;;10.53;9.53;;;;;;;23.43;80.41;157392.75;4994648;28;20468;-82
2023/09/16 08:53:55;;;;;;;10.10;9.17;;;;;;;23.40;80.97;157384.91;5003241;28;20447;-82
2023/09/16 08:56:22;;;;;;;9.90;8.87;;;;;;;23.35;80.27;157371.78;4987158;28;20840;-82
2023/09/16 08:58:49;;;;;;;9.30;8.40;;;;;;;23.41;80.25;157387.50;4986134;28;20464;-79
2023/09/16 09:01:18;;;;;;;9.10;8.30;;;;;;;23.44;82.15;157395.34;4982303;28;20461;-81
2023/09/16 09:03:45;;;;;;;10.50;9.60;;;;;;;23.39;81.64;157383.59;5004208;28;20459;-81
2023/09/16 09:06:14;;;;;;;12.43;8.70;;;;;;;23.40;81.24;157386.22;4989581;28;20540;-82
2023/09/16 09:08:41;;;;;;;9.97;9.03;;;;;;;23.49;78.61;157408.41;5007165;28;20448;-82
2023/09/16 09:11:12;;;;;;;9.23;8.30;;;;;;;23.52;78.45;157416.25;5000978;28;20856;-82
2023/09/16 09:13:39;;;;;;;8.90;8.00;;;;;;;23.49;79.33;157408.41;4990394;28;20499;-82
2023/09/16 09:16:06;;;;;;;9.10;8.20;;;;;;;23.55;78.58;157424.09;5007331;28;20472;-82
2023/09/16 09:18:34;;;;;;;8.73;7.60;;;;;;;23.82;76.48;157494.72;4985637;28;20879;-82
2023/09/16 09:21:01;;;;;;;7.97;7.27;;;;;;;23.89;75.77;157511.69;5008348;28;20460;-82
2023/09/16 09:23:31;;;;;;;7.20;6.60;;;;;;;24.00;74.71;157541.78;5010534;28;20457;-81
2023/09/16 09:25:57;;;;;;;9.10;8.20;;;;;;;23.90;74.92;157515.63;4989449;28;20487;-81
2023/09/16 09:28:24;;;;;;;8.20;7.50;;;;;;;23.98;75.98;157536.56;4990298;28;20482;-82
2023/09/16 09:30:53;;;;;;;10.90;7.37;;;;;;;24.03;76.74;157549.63;5007345;28;20449;-82
2023/09/16 09:33:21;;;;;;;9.23;8.33;;;;;;;24.04;74.95;157552.22;4996211;28;20534;-82
2023/09/16 09:35:48;;;;;;;9.60;8.70;;;;;;;23.91;75.76;157518.22;4988163;28;20464;-82
2023/09/16 09:38:15;;;;;;;8.53;7.73;;;;;;;23.75;76.46;157475.13;4989746;28;20469;-82
2023/09/16 09:40:58;;;;;;;9.00;8.10;;;;;;;23.67;77.97;157454.19;4989727;28;20484;-82
2023/09/16 09:43:25;;;;;;;9.13;8.30;;;;;;;23.62;78.13;157442.38;4989262;28;20466;-82
2023/09/16 09:45:52;;;;;;;9.40;8.57;;;;;;;23.70;77.86;157462.00;4985766;28;20491;-81
2023/09/16 09:48:19;;;;;;;9.23;8.20;;;;;;;23.61;77.54;157439.81;5006458;28;20463;-82
2023/09/16 09:50:45;;;;;;;8.80;7.90;;;;;;;23.44;78.02;157395.34;4973371;28;20872;-82
2023/09/16 09:53:12;;;;;;;9.20;8.40;;;;;;;23.53;78.55;157418.88;4988072;28;20447;-82
2023/09/16 09:55:40;;;;;;;8.67;7.80;;;;;;;23.61;79.36;157439.81;5006605;28;20488;-82
2023/09/16 09:58:09;;;;;;;9.50;8.60;;;;;;;23.70;77.51;157462.00;4988297;28;20522;-83
2023/09/16 10:00:35;;;;;;;9.07;7.40;;;;;;;23.64;77.73;157447.66;5007180;28;20444;-82
2023/09/16 10:03:02;;;;;;;8.33;7.53;;;;;;;23.54;77.87;157421.47;4972631;28;21060;-82
2023/09/16 10:05:28;;;;;;;8.23;7.53;;;;;;;23.44;77.91;157395.34;5005587;28;20674;-82
2023/09/16 10:07:55;;;;;;;9.03;8.20;;;;;;;23.59;76.11;157434.53;4990384;28;20475;-82
2023/09/16 10:10:23;;;;;;;8.30;7.50;;;;;;;23.68;76.81;157458.09;4989756;28;20461;-82
2023/09/16 10:12:52;;;;;;;8.30;7.60;;;;;;;23.75;75.12;157475.13;4985533;28;20563;-82
2023/09/16 10:15:23;;;;;;;7.70;7.00;;;;;;;23.74;76.05;157473.78;4987261;28;20460;-82
2023/09/16 10:17:50;;;;;;;6.90;6.30;;;;;;;23.79;74.31;157485.53;4986548;28;20452;-82
2023/09/16 10:20:17;;;;;;;6.23;5.63;;;;;;;23.88;71.65;157510.38;4987315;28;21526;-83
2023/09/16 10:22:44;;;;;;;6.50;6.00;;;;;;;23.94;72.48;157526.06;5005367;28;20552;-81
2023/09/16 10:25:12;;;;;;;6.63;6.03;;;;;;;23.99;71.95;157539.13;4994642;28;20482;-81
2023/09/16 10:27:43;;;;;;;7.07;6.40;;;;;;;24.00;72.02;157541.78;5007792;28;20453;-82
2023/09/16 10:30:10;;;;;;;7.40;6.60;;;;;;;24.15;70.29;157581.03;4986912;28;20455;-84
2023/09/16 10:32:39;;;;;;;5.30;4.80;;;;;;;24.12;68.14;157573.19;4983709;28;20452;-83
2023/09/16 10:35:09;;;;;;;5.20;4.73;;;;;;;24.16;67.65;157583.69;5004749;28;20452;-83
2023/09/16 10:37:37;;;;;;;6.27;5.30;;;;;;;24.22;67.28;157599.31;4983916;28;20979;-82
2023/09/16 10:40:05;;;;;;;5.40;4.90;;;;;;;24.36;67.47;157633.38;4987240;28;20456;-83
2023/09/16 10:42:33;;;;;;;5.10;4.60;;;;;;;24.35;66.32;157630.75;4988500;28;20484;-82
2023/09/16 10:45:02;;;;;;;4.30;3.90;;;;;;;24.28;65.49;157613.72;5007753;28;20491;-83
2023/09/16 10:47:29;;;;;;;5.00;4.53;;;;;;;24.46;63.85;157659.53;5006235;28;20464;-83
2023/09/16 10:49:57;;;;;;;4.80;3.80;;;;;;;24.32;63.87;157622.88;4974042;28;20448;-83
2023/09/16 10:52:30;;;;;;;4.80;4.40;;;;;;;24.33;63.59;157626.78;4990132;28;20496;-82
2023/09/16 10:55:07;;;;;;;4.20;3.80;;;;;;;24.27;64.27;157609.81;5004267;28;20519;-83
2023/09/16 10:57:38;;;;;;;4.47;4.03;;;;;;;24.25;63.51;157604.59;4987215;28;20494;-82
2023/09/16 11:00:06;;;;;;;4.47;4.07;;;;;;;24.31;62.98;157621.56;5007578;28;20452;-83
2023/09/16 11:02:37;;;;;;;4.67;4.27;;;;;;;24.42;62.43;157649.03;5005594;28;20462;-82
2023/09/16 11:05:06;;;;;;;4.20;3.80;;;;;;;24.42;61.96;157649.03;5004718;28;20555;-82
2023/09/16 11:07:32;;;;;;;3.97;3.57;;;;;;;24.58;61.91;157692.22;4987588;28;20487;-82
2023/09/16 11:09:59;;;;;;;4.33;3.93;;;;;;;24.62;61.39;157702.66;5006993;28;20456;-82
2023/09/16 11:12:26;;;;;;;4.40;4.00;;;;;;;24.59;62.49;157693.53;5005943;28;20461;-82
2023/09/16 11:14:53;;;;;;;4.30;3.90;;;;;;;24.59;61.94;157693.53;5003676;28;20461;-82
2023/09/16 11:17:22;;;;;;;4.07;3.63;;;;;;;24.54;62.23;157681.72;4987964;28;20456;-82
2023/09/16 11:19:48;;;;;;;4.43;4.03;;;;;;;24.62;63.07;157701.38;4986355;28;20468;-82
2023/09/16 11:22:17;;;;;;;6.10;4.60;;;;;;;24.76;61.41;157737.97;5004159;28;20619;-83
2023/09/16 11:24:44;;;;;;;4.57;4.17;;;;;;;24.69;61.92;157721.00;4987092;28;20480;-82
2023/09/16 11:27:11;;;;;;;5.00;4.60;;;;;;;24.77;62.83;157740.63;4990798;28;20460;-82